sensor_id;sensor_type;location;lat;lon;timestamp;P1;durP1;ratioP1;P2;durP2;ratioP2
73766;SDS011;62074;43.530;-5.646;2022-07-18T00:00:28;29.03;;;18.83;;
73766;SDS011;62074;43.530;-5.646;2022-07-18T00:02:54;32.83;;;19.77;;
73766;SDS011;62074;43.530;-5.646;2022-07-18T00:05:19;30.38;;;17.98;;
73766;SDS011;62074;43.530;-5.646;2022-07-18T00:07:45;34.10;;;18.63;;
73766;SDS011;62074;43.530;-5.646;2022-07-18T00:10:10;32.23;;;17.70;;
73766;SDS011;62074;43.530;-5.646;2022-07-18T00:12:36;28.27;;;17.83;;
73766;SDS011;62074;43.530;-5.646;2022-07-18T00:15:02;30.53;;;18.13;;
73766;SDS011;62074;43.530;-5.646;2022-07-18T00:17:29;31.38;;;17.75;;
73766;SDS011;62074;43.530;-5.646;2022-07-18T00:19:54;28.80;;;17.77;;
73766;SDS011;62074;43.530;-5.646;2022-07-18T00:22:20;30.87;;;17.90;;
73766;SDS011;62074;43.530;-5.646;2022-07-18T00:24:45;28.85;;;18.58;;
73766;SDS011;62074;43.530;-5.646;2022-07-18T00:27:11;30.50;;;18.13;;
73766;SDS011;62074;43.530;-5.646;2022-07-18T00:29:36;29.33;;;18.17;;
73766;SDS011;62074;43.530;-5.646;2022-07-18T00:32:03;30.75;;;17.58;;
73766;SDS011;62074;43.530;-5.646;2022-07-18T00:34:30;33.95;;;17.80;;
73766;SDS011;62074;43.530;-5.646;2022-07-18T00:36:56;34.83;;;18.57;;
73766;SDS011;62074;43.530;-5.646;2022-07-18T00:39:23;29.13;;;18.17;;
73766;SDS011;62074;43.530;-5.646;2022-07-18T00:41:48;32.45;;;17.67;;
73766;SDS011;62074;43.530;-5.646;2022-07-18T00:44:22;32.60;;;18.40;;
73766;SDS011;62074;43.530;-5.646;2022-07-18T00:46:50;29.00;;;18.00;;
73766;SDS011;62074;43.530;-5.646;2022-07-18T00:49:17;31.83;;;18.67;;
73766;SDS011;62074;43.530;-5.646;2022-07-18T00:51:44;28.00;;;18.50;;
73766;SDS011;62074;43.530;-5.646;2022-07-18T00:54:10;33.83;;;18.73;;
73766;SDS011;62074;43.530;-5.646;2022-07-18T00:56:36;30.48;;;18.83;;
73766;SDS011;62074;43.530;-5.646;2022-07-18T00:59:01;31.43;;;18.50;;
73766;SDS011;62074;43.530;-5.646;2022-07-18T01:01:27;33.47;;;20.70;;
73766;SDS011;62074;43.530;-5.646;2022-07-18T01:04:08;31.70;;;19.13;;
73766;SDS011;62074;43.530;-5.646;2022-07-18T01:06:41;33.42;;;20.45;;
73766;SDS011;62074;43.530;-5.646;2022-07-18T01:09:07;30.77;;;19.50;;
73766;SDS011;62074;43.530;-5.646;2022-07-18T01:11:34;32.55;;;20.10;;
73766;SDS011;62074;43.530;-5.646;2022-07-18T01:14:00;35.03;;;20.05;;
73766;SDS011;62074;43.530;-5.646;2022-07-18T01:16:28;33.50;;;20.33;;
73766;SDS011;62074;43.530;-5.646;2022-07-18T01:18:54;32.35;;;20.08;;
73766;SDS011;62074;43.530;-5.646;2022-07-18T01:21:19;34.63;;;21.23;;
73766;SDS011;62074;43.530;-5.646;2022-07-18T01:23:45;32.55;;;20.02;;
73766;SDS011;62074;43.530;-5.646;2022-07-18T01:26:12;33.95;;;20.13;;
73766;SDS011;62074;43.530;-5.646;2022-07-18T01:28:39;28.88;;;18.95;;
73766;SDS011;62074;43.530;-5.646;2022-07-18T01:31:05;35.55;;;20.70;;
73766;SDS011;62074;43.530;-5.646;2022-07-18T01:33:31;31.43;;;19.13;;
73766;SDS011;62074;43.530;-5.646;2022-07-18T01:35:58;33.97;;;20.38;;
73766;SDS011;62074;43.530;-5.646;2022-07-18T01:38:25;35.33;;;21.33;;
73766;SDS011;62074;43.530;-5.646;2022-07-18T01:40:54;34.00;;;21.38;;
73766;SDS011;62074;43.530;-5.646;2022-07-18T01:43:20;32.03;;;19.73;;
73766;SDS011;62074;43.530;-5.646;2022-07-18T01:45:47;37.03;;;20.60;;
73766;SDS011;62074;43.530;-5.646;2022-07-18T01:48:12;31.90;;;20.60;;
73766;SDS011;62074;43.530;-5.646;2022-07-18T01:50:38;32.08;;;20.52;;
73766;SDS011;62074;43.530;-5.646;2022-07-18T01:53:03;36.33;;;21.60;;
73766;SDS011;62074;43.530;-5.646;2022-07-18T01:55:29;35.83;;;21.77;;
73766;SDS011;62074;43.530;-5.646;2022-07-18T01:57:54;33.17;;;20.00;;
73766;SDS011;62074;43.530;-5.646;2022-07-18T02:00:20;34.80;;;20.90;;
73766;SDS011;62074;43.530;-5.646;2022-07-18T02:02:45;30.33;;;20.17;;
73766;SDS011;62074;43.530;-5.646;2022-07-18T02:05:11;30.88;;;20.00;;
73766;SDS011;62074;43.530;-5.646;2022-07-18T02:07:37;35.33;;;20.20;;
73766;SDS011;62074;43.530;-5.646;2022-07-18T02:10:09;28.58;;;19.65;;
73766;SDS011;62074;43.530;-5.646;2022-07-18T02:12:40;32.40;;;19.63;;
73766;SDS011;62074;43.530;-5.646;2022-07-18T02:15:06;32.13;;;19.73;;
73766;SDS011;62074;43.530;-5.646;2022-07-18T02:17:34;34.47;;;20.35;;
73766;SDS011;62074;43.530;-5.646;2022-07-18T02:20:00;33.58;;;20.92;;
73766;SDS011;62074;43.530;-5.646;2022-07-18T02:22:25;28.90;;;19.83;;
73766;SDS011;62074;43.530;-5.646;2022-07-18T02:24:51;31.52;;;19.27;;
73766;SDS011;62074;43.530;-5.646;2022-07-18T02:27:17;32.33;;;20.70;;
73766;SDS011;62074;43.530;-5.646;2022-07-18T02:29:43;30.57;;;19.70;;
73766;SDS011;62074;43.530;-5.646;2022-07-18T02:32:09;29.98;;;19.40;;
73766;SDS011;62074;43.530;-5.646;2022-07-18T02:34:35;29.13;;;19.50;;
73766;SDS011;62074;43.530;-5.646;2022-07-18T02:37:00;32.87;;;19.37;;
73766;SDS011;62074;43.530;-5.646;2022-07-18T02:39:27;31.42;;;19.40;;
73766;SDS011;62074;43.530;-5.646;2022-07-18T02:41:53;27.60;;;19.30;;
73766;SDS011;62074;43.530;-5.646;2022-07-18T02:44:19;25.53;;;18.70;;
73766;SDS011;62074;43.530;-5.646;2022-07-18T02:46:44;27.70;;;19.48;;
73766;SDS011;62074;43.530;-5.646;2022-07-18T02:49:10;29.93;;;19.37;;
73766;SDS011;62074;43.530;-5.646;2022-07-18T02:51:51;26.25;;;18.67;;
73766;SDS011;62074;43.530;-5.646;2022-07-18T02:54:18;27.85;;;18.92;;
73766;SDS011;62074;43.530;-5.646;2022-07-18T02:56:43;25.87;;;19.00;;
73766;SDS011;62074;43.530;-5.646;2022-07-18T02:59:08;26.77;;;17.67;;
73766;SDS011;62074;43.530;-5.646;2022-07-18T03:01:34;30.33;;;18.45;;
73766;SDS011;62074;43.530;-5.646;2022-07-18T03:03:59;27.50;;;18.03;;
73766;SDS011;62074;43.530;-5.646;2022-07-18T03:06:27;32.75;;;20.17;;
73766;SDS011;62074;43.530;-5.646;2022-07-18T03:08:53;27.30;;;18.83;;
73766;SDS011;62074;43.530;-5.646;2022-07-18T03:11:19;29.80;;;19.27;;
73766;SDS011;62074;43.530;-5.646;2022-07-18T03:13:44;28.67;;;18.93;;
73766;SDS011;62074;43.530;-5.646;2022-07-18T03:16:10;28.75;;;19.90;;
73766;SDS011;62074;43.530;-5.646;2022-07-18T03:18:35;30.70;;;19.30;;
73766;SDS011;62074;43.530;-5.646;2022-07-18T03:21:01;26.60;;;18.40;;
73766;SDS011;62074;43.530;-5.646;2022-07-18T03:23:26;29.73;;;19.43;;
73766;SDS011;62074;43.530;-5.646;2022-07-18T03:25:52;27.33;;;19.33;;
73766;SDS011;62074;43.530;-5.646;2022-07-18T03:28:17;27.83;;;17.97;;
73766;SDS011;62074;43.530;-5.646;2022-07-18T03:30:43;28.25;;;20.08;;
73766;SDS011;62074;43.530;-5.646;2022-07-18T03:33:08;28.67;;;18.97;;
73766;SDS011;62074;43.530;-5.646;2022-07-18T03:35:34;33.70;;;19.73;;
73766;SDS011;62074;43.530;-5.646;2022-07-18T03:37:59;29.50;;;20.08;;
73766;SDS011;62074;43.530;-5.646;2022-07-18T03:40:25;26.17;;;19.13;;
73766;SDS011;62074;43.530;-5.646;2022-07-18T03:42:50;29.80;;;19.53;;
73766;SDS011;62074;43.530;-5.646;2022-07-18T03:45:16;24.98;;;18.13;;
73766;SDS011;62074;43.530;-5.646;2022-07-18T03:47:41;26.90;;;19.23;;
73766;SDS011;62074;43.530;-5.646;2022-07-18T03:50:07;25.67;;;18.90;;
73766;SDS011;62074;43.530;-5.646;2022-07-18T03:52:33;26.20;;;18.35;;
73766;SDS011;62074;43.530;-5.646;2022-07-18T03:54:58;30.60;;;19.63;;
73766;SDS011;62074;43.530;-5.646;2022-07-18T03:57:26;28.23;;;19.88;;
73766;SDS011;62074;43.530;-5.646;2022-07-18T03:59:52;28.58;;;19.17;;
73766;SDS011;62074;43.530;-5.646;2022-07-18T04:02:18;27.40;;;19.13;;
73766;SDS011;62074;43.530;-5.646;2022-07-18T04:04:43;24.70;;;17.88;;
73766;SDS011;62074;43.530;-5.646;2022-07-18T04:07:09;24.53;;;18.67;;
73766;SDS011;62074;43.530;-5.646;2022-07-18T04:09:34;26.00;;;19.13;;
73766;SDS011;62074;43.530;-5.646;2022-07-18T04:12:00;27.85;;;19.02;;
73766;SDS011;62074;43.530;-5.646;2022-07-18T04:14:25;27.17;;;18.23;;
73766;SDS011;62074;43.530;-5.646;2022-07-18T04:16:51;26.33;;;18.07;;
73766;SDS011;62074;43.530;-5.646;2022-07-18T04:19:16;28.25;;;18.88;;
73766;SDS011;62074;43.530;-5.646;2022-07-18T04:21:42;30.23;;;18.80;;
73766;SDS011;62074;43.530;-5.646;2022-07-18T04:24:08;26.33;;;17.90;;
73766;SDS011;62074;43.530;-5.646;2022-07-18T04:26:33;25.47;;;17.80;;
73766;SDS011;62074;43.530;-5.646;2022-07-18T04:28:59;26.65;;;17.95;;
73766;SDS011;62074;43.530;-5.646;2022-07-18T04:31:24;23.33;;;17.47;;
73766;SDS011;62074;43.530;-5.646;2022-07-18T04:33:50;25.30;;;17.60;;
73766;SDS011;62074;43.530;-5.646;2022-07-18T04:36:15;27.03;;;17.50;;
73766;SDS011;62074;43.530;-5.646;2022-07-18T04:38:41;28.08;;;17.42;;
73766;SDS011;62074;43.530;-5.646;2022-07-18T04:41:06;32.67;;;18.63;;
73766;SDS011;62074;43.530;-5.646;2022-07-18T04:43:32;25.05;;;17.75;;
73766;SDS011;62074;43.530;-5.646;2022-07-18T04:45:58;28.73;;;18.67;;
73766;SDS011;62074;43.530;-5.646;2022-07-18T04:48:23;26.63;;;18.08;;
73766;SDS011;62074;43.530;-5.646;2022-07-18T04:50:49;27.87;;;17.13;;
73766;SDS011;62074;43.530;-5.646;2022-07-18T04:53:15;28.00;;;18.55;;
73766;SDS011;62074;43.530;-5.646;2022-07-18T04:55:41;22.73;;;16.90;;
73766;SDS011;62074;43.530;-5.646;2022-07-18T04:58:07;27.20;;;18.23;;
73766;SDS011;62074;43.530;-5.646;2022-07-18T05:00:33;26.35;;;17.73;;
73766;SDS011;62074;43.530;-5.646;2022-07-18T05:02:59;27.90;;;18.67;;
73766;SDS011;62074;43.530;-5.646;2022-07-18T05:05:25;27.23;;;18.13;;
73766;SDS011;62074;43.530;-5.646;2022-07-18T05:07:52;24.15;;;17.92;;
73766;SDS011;62074;43.530;-5.646;2022-07-18T05:10:18;27.17;;;18.60;;
73766;SDS011;62074;43.530;-5.646;2022-07-18T05:12:46;27.85;;;18.52;;
73766;SDS011;62074;43.530;-5.646;2022-07-18T05:15:14;28.80;;;18.85;;
73766;SDS011;62074;43.530;-5.646;2022-07-18T05:17:41;27.02;;;18.65;;
73766;SDS011;62074;43.530;-5.646;2022-07-18T05:20:08;26.73;;;17.77;;
73766;SDS011;62074;43.530;-5.646;2022-07-18T05:22:36;26.50;;;18.93;;
73766;SDS011;62074;43.530;-5.646;2022-07-18T05:25:02;27.60;;;18.83;;
73766;SDS011;62074;43.530;-5.646;2022-07-18T05:27:29;27.00;;;17.90;;
73766;SDS011;62074;43.530;-5.646;2022-07-18T05:29:55;26.10;;;18.17;;
73766;SDS011;62074;43.530;-5.646;2022-07-18T05:32:20;24.33;;;16.85;;
73766;SDS011;62074;43.530;-5.646;2022-07-18T05:34:46;25.00;;;17.87;;
73766;SDS011;62074;43.530;-5.646;2022-07-18T05:37:12;26.13;;;17.55;;
73766;SDS011;62074;43.530;-5.646;2022-07-18T05:39:38;24.80;;;17.30;;
73766;SDS011;62074;43.530;-5.646;2022-07-18T05:42:04;25.97;;;17.20;;
73766;SDS011;62074;43.530;-5.646;2022-07-18T05:44:30;23.23;;;16.65;;
73766;SDS011;62074;43.530;-5.646;2022-07-18T05:46:55;24.60;;;16.97;;
73766;SDS011;62074;43.530;-5.646;2022-07-18T05:49:21;24.95;;;17.27;;
73766;SDS011;62074;43.530;-5.646;2022-07-18T05:51:46;23.57;;;16.50;;
73766;SDS011;62074;43.530;-5.646;2022-07-18T05:54:12;26.30;;;17.10;;
73766;SDS011;62074;43.530;-5.646;2022-07-18T05:56:43;23.42;;;16.42;;
73766;SDS011;62074;43.530;-5.646;2022-07-18T05:59:12;25.42;;;16.55;;
73766;SDS011;62074;43.530;-5.646;2022-07-18T06:01:38;27.23;;;17.10;;
73766;SDS011;62074;43.530;-5.646;2022-07-18T06:04:03;26.35;;;16.30;;
73766;SDS011;62074;43.530;-5.646;2022-07-18T06:06:29;27.80;;;19.53;;
73766;SDS011;62074;43.530;-5.646;2022-07-18T06:08:55;31.63;;;19.92;;
73766;SDS011;62074;43.530;-5.646;2022-07-18T06:11:20;24.95;;;18.25;;
73766;SDS011;62074;43.530;-5.646;2022-07-18T06:13:46;33.23;;;20.07;;
73766;SDS011;62074;43.530;-5.646;2022-07-18T06:16:11;34.13;;;18.87;;
73766;SDS011;62074;43.530;-5.646;2022-07-18T06:18:37;32.83;;;17.77;;
73766;SDS011;62074;43.530;-5.646;2022-07-18T06:21:02;25.38;;;16.30;;
73766;SDS011;62074;43.530;-5.646;2022-07-18T06:23:29;30.23;;;15.70;;
73766;SDS011;62074;43.530;-5.646;2022-07-18T06:25:55;26.40;;;14.57;;
73766;SDS011;62074;43.530;-5.646;2022-07-18T06:28:21;25.75;;;13.80;;
73766;SDS011;62074;43.530;-5.646;2022-07-18T06:30:47;26.98;;;14.52;;
73766;SDS011;62074;43.530;-5.646;2022-07-18T06:33:13;24.53;;;14.37;;
73766;SDS011;62074;43.530;-5.646;2022-07-18T06:35:39;24.58;;;14.48;;
73766;SDS011;62074;43.530;-5.646;2022-07-18T06:38:05;24.58;;;13.88;;
73766;SDS011;62074;43.530;-5.646;2022-07-18T06:40:31;22.77;;;14.67;;
73766;SDS011;62074;43.530;-5.646;2022-07-18T06:42:56;21.52;;;12.77;;
73766;SDS011;62074;43.530;-5.646;2022-07-18T06:45:22;25.37;;;14.67;;
73766;SDS011;62074;43.530;-5.646;2022-07-18T06:47:48;26.60;;;15.68;;
73766;SDS011;62074;43.530;-5.646;2022-07-18T06:50:14;31.77;;;18.67;;
73766;SDS011;62074;43.530;-5.646;2022-07-18T06:52:40;31.30;;;20.65;;
73766;SDS011;62074;43.530;-5.646;2022-07-18T06:55:07;27.35;;;19.20;;
73766;SDS011;62074;43.530;-5.646;2022-07-18T06:57:33;35.33;;;20.33;;
73766;SDS011;62074;43.530;-5.646;2022-07-18T06:59:59;34.13;;;21.23;;
73766;SDS011;62074;43.530;-5.646;2022-07-18T07:02:25;30.77;;;20.33;;
73766;SDS011;62074;43.530;-5.646;2022-07-18T07:04:50;35.38;;;21.05;;
73766;SDS011;62074;43.530;-5.646;2022-07-18T07:07:16;38.23;;;22.23;;
73766;SDS011;62074;43.530;-5.646;2022-07-18T07:09:42;31.92;;;21.15;;
73766;SDS011;62074;43.530;-5.646;2022-07-18T07:12:07;35.50;;;20.80;;
73766;SDS011;62074;43.530;-5.646;2022-07-18T07:14:35;37.20;;;22.95;;
73766;SDS011;62074;43.530;-5.646;2022-07-18T07:17:01;34.25;;;22.05;;
73766;SDS011;62074;43.530;-5.646;2022-07-18T07:19:26;33.50;;;19.33;;
73766;SDS011;62074;43.530;-5.646;2022-07-18T07:21:52;26.25;;;17.90;;
73766;SDS011;62074;43.530;-5.646;2022-07-18T07:24:17;27.80;;;16.80;;
73766;SDS011;62074;43.530;-5.646;2022-07-18T07:26:43;31.90;;;18.57;;
73766;SDS011;62074;43.530;-5.646;2022-07-18T07:29:08;38.03;;;20.75;;
73766;SDS011;62074;43.530;-5.646;2022-07-18T07:31:34;36.70;;;21.73;;
73766;SDS011;62074;43.530;-5.646;2022-07-18T07:33:59;31.77;;;19.83;;
73766;SDS011;62074;43.530;-5.646;2022-07-18T07:36:24;41.30;;;23.20;;
73766;SDS011;62074;43.530;-5.646;2022-07-18T07:38:50;36.57;;;22.50;;
73766;SDS011;62074;43.530;-5.646;2022-07-18T07:41:15;39.60;;;24.33;;
73766;SDS011;62074;43.530;-5.646;2022-07-18T07:43:41;51.53;;;30.70;;
73766;SDS011;62074;43.530;-5.646;2022-07-18T07:46:07;64.13;;;36.47;;
73766;SDS011;62074;43.530;-5.646;2022-07-18T07:48:32;59.10;;;35.40;;
73766;SDS011;62074;43.530;-5.646;2022-07-18T07:50:58;59.63;;;31.77;;
73766;SDS011;62074;43.530;-5.646;2022-07-18T07:53:24;49.67;;;28.60;;
73766;SDS011;62074;43.530;-5.646;2022-07-18T07:55:49;42.63;;;25.70;;
73766;SDS011;62074;43.530;-5.646;2022-07-18T07:58:15;37.80;;;23.57;;
73766;SDS011;62074;43.530;-5.646;2022-07-18T08:00:40;48.72;;;30.60;;
73766;SDS011;62074;43.530;-5.646;2022-07-18T08:03:06;45.37;;;27.33;;
73766;SDS011;62074;43.530;-5.646;2022-07-18T08:05:34;39.80;;;26.20;;
73766;SDS011;62074;43.530;-5.646;2022-07-18T08:08:03;44.90;;;26.60;;
73766;SDS011;62074;43.530;-5.646;2022-07-18T08:10:29;38.30;;;25.10;;
73766;SDS011;62074;43.530;-5.646;2022-07-18T08:12:55;44.85;;;27.85;;
73766;SDS011;62074;43.530;-5.646;2022-07-18T08:15:21;39.92;;;26.25;;
73766;SDS011;62074;43.530;-5.646;2022-07-18T08:17:47;47.73;;;30.47;;
73766;SDS011;62074;43.530;-5.646;2022-07-18T08:20:12;51.25;;;30.92;;
73766;SDS011;62074;43.530;-5.646;2022-07-18T08:22:58;40.07;;;28.30;;
73766;SDS011;62074;43.530;-5.646;2022-07-18T08:25:25;39.83;;;25.88;;
73766;SDS011;62074;43.530;-5.646;2022-07-18T08:27:52;39.80;;;28.00;;
73766;SDS011;62074;43.530;-5.646;2022-07-18T08:30:18;41.93;;;27.17;;
73766;SDS011;62074;43.530;-5.646;2022-07-18T08:32:44;48.80;;;27.55;;
73766;SDS011;62074;43.530;-5.646;2022-07-18T08:35:09;43.30;;;28.07;;
73766;SDS011;62074;43.530;-5.646;2022-07-18T08:37:36;46.15;;;28.20;;
73766;SDS011;62074;43.530;-5.646;2022-07-18T08:40:02;43.97;;;27.70;;
73766;SDS011;62074;43.530;-5.646;2022-07-18T08:42:28;44.10;;;28.75;;
73766;SDS011;62074;43.530;-5.646;2022-07-18T08:44:56;38.35;;;25.48;;
73766;SDS011;62074;43.530;-5.646;2022-07-18T08:47:22;35.07;;;23.00;;
73766;SDS011;62074;43.530;-5.646;2022-07-18T08:49:48;34.28;;;22.90;;
73766;SDS011;62074;43.530;-5.646;2022-07-18T08:52:14;35.92;;;23.23;;
73766;SDS011;62074;43.530;-5.646;2022-07-18T08:54:41;35.57;;;23.43;;
73766;SDS011;62074;43.530;-5.646;2022-07-18T08:57:07;41.40;;;24.02;;
73766;SDS011;62074;43.530;-5.646;2022-07-18T08:59:32;37.97;;;25.33;;
73766;SDS011;62074;43.530;-5.646;2022-07-18T09:01:58;39.10;;;24.55;;
73766;SDS011;62074;43.530;-5.646;2022-07-18T09:04:34;41.10;;;26.87;;
73766;SDS011;62074;43.530;-5.646;2022-07-18T09:07:03;35.10;;;23.63;;
73766;SDS011;62074;43.530;-5.646;2022-07-18T09:09:31;38.97;;;25.93;;
73766;SDS011;62074;43.530;-5.646;2022-07-18T09:12:00;43.35;;;27.23;;
73766;SDS011;62074;43.530;-5.646;2022-07-18T09:17:13;40.87;;;26.03;;
73766;SDS011;62074;43.530;-5.646;2022-07-18T09:22:40;39.00;;;26.92;;
73766;SDS011;62074;43.530;-5.646;2022-07-18T09:25:09;45.95;;;29.23;;
73766;SDS011;62074;43.530;-5.646;2022-07-18T09:27:40;42.67;;;29.05;;
73766;SDS011;62074;43.530;-5.646;2022-07-18T09:32:49;34.80;;;23.00;;
73766;SDS011;62074;43.530;-5.646;2022-07-18T09:35:20;39.35;;;24.20;;
73766;SDS011;62074;43.530;-5.646;2022-07-18T09:38:07;39.95;;;24.27;;
73766;SDS011;62074;43.530;-5.646;2022-07-18T09:43:12;32.00;;;20.13;;
73766;SDS011;62074;43.530;-5.646;2022-07-18T09:45:44;31.50;;;19.38;;
73766;SDS011;62074;43.530;-5.646;2022-07-18T09:48:18;25.33;;;17.40;;
73766;SDS011;62074;43.530;-5.646;2022-07-18T09:51:17;25.60;;;17.88;;
73766;SDS011;62074;43.530;-5.646;2022-07-18T09:53:37;32.45;;;20.02;;
73766;SDS011;62074;43.530;-5.646;2022-07-18T09:56:07;29.53;;;19.33;;
73766;SDS011;62074;43.530;-5.646;2022-07-18T09:58:54;30.80;;;20.38;;
73766;SDS011;62074;43.530;-5.646;2022-07-18T10:01:21;33.60;;;19.90;;
73766;SDS011;62074;43.530;-5.646;2022-07-18T10:03:47;30.13;;;20.60;;
73766;SDS011;62074;43.530;-5.646;2022-07-18T10:06:16;31.60;;;20.35;;
73766;SDS011;62074;43.530;-5.646;2022-07-18T10:08:46;28.23;;;19.70;;
73766;SDS011;62074;43.530;-5.646;2022-07-18T10:11:12;32.40;;;19.83;;
73766;SDS011;62074;43.530;-5.646;2022-07-18T10:13:38;31.38;;;20.58;;
73766;SDS011;62074;43.530;-5.646;2022-07-18T10:16:04;37.53;;;20.07;;
73766;SDS011;62074;43.530;-5.646;2022-07-18T10:18:31;33.22;;;18.67;;
73766;SDS011;62074;43.530;-5.646;2022-07-18T10:23:28;28.25;;;17.27;;
73766;SDS011;62074;43.530;-5.646;2022-07-18T10:33:53;28.52;;;17.38;;
73766;SDS011;62074;43.530;-5.646;2022-07-18T10:36:34;32.50;;;18.10;;
73766;SDS011;62074;43.530;-5.646;2022-07-18T10:39:08;24.90;;;17.07;;
73766;SDS011;62074;43.530;-5.646;2022-07-18T10:57:27;19.70;;;13.50;;
73766;SDS011;62074;43.530;-5.646;2022-07-18T11:02:42;22.65;;;14.98;;
73766;SDS011;62074;43.530;-5.646;2022-07-18T11:21:15;29.98;;;17.88;;
73766;SDS011;62074;43.530;-5.646;2022-07-18T11:23:43;24.27;;;16.40;;
73766;SDS011;62074;43.530;-5.646;2022-07-18T11:26:16;23.50;;;16.63;;
73766;SDS011;62074;43.530;-5.646;2022-07-18T11:28:43;31.27;;;19.90;;
73766;SDS011;62074;43.530;-5.646;2022-07-18T11:31:11;27.30;;;17.02;;
73766;SDS011;62074;43.530;-5.646;2022-07-18T11:33:38;27.00;;;18.83;;
73766;SDS011;62074;43.530;-5.646;2022-07-18T11:36:09;29.05;;;19.30;;
73766;SDS011;62074;43.530;-5.646;2022-07-18T11:38:37;25.57;;;17.73;;
73766;SDS011;62074;43.530;-5.646;2022-07-18T11:41:04;25.38;;;16.08;;
73766;SDS011;62074;43.530;-5.646;2022-07-18T11:43:30;26.88;;;15.82;;
73766;SDS011;62074;43.530;-5.646;2022-07-18T11:46:04;23.50;;;15.45;;
73766;SDS011;62074;43.530;-5.646;2022-07-18T11:48:32;18.67;;;13.85;;
73766;SDS011;62074;43.530;-5.646;2022-07-18T11:50:59;18.67;;;14.07;;
73766;SDS011;62074;43.530;-5.646;2022-07-18T11:53:25;20.35;;;14.02;;
73766;SDS011;62074;43.530;-5.646;2022-07-18T11:55:52;18.08;;;12.68;;
73766;SDS011;62074;43.530;-5.646;2022-07-18T11:58:21;21.40;;;13.30;;
73766;SDS011;62074;43.530;-5.646;2022-07-18T12:00:47;20.42;;;13.52;;
73766;SDS011;62074;43.530;-5.646;2022-07-18T12:03:17;27.43;;;17.67;;
73766;SDS011;62074;43.530;-5.646;2022-07-18T12:05:46;25.95;;;15.90;;
73766;SDS011;62074;43.530;-5.646;2022-07-18T12:08:32;19.30;;;13.52;;
73766;SDS011;62074;43.530;-5.646;2022-07-18T12:11:49;20.92;;;13.60;;
73766;SDS011;62074;43.530;-5.646;2022-07-18T12:13:58;16.05;;;12.48;;
73766;SDS011;62074;43.530;-5.646;2022-07-18T12:16:48;15.87;;;10.57;;
73766;SDS011;62074;43.530;-5.646;2022-07-18T12:19:31;15.25;;;10.27;;
73766;SDS011;62074;43.530;-5.646;2022-07-18T12:24:31;15.00;;;10.07;;
73766;SDS011;62074;43.530;-5.646;2022-07-18T12:27:24;14.23;;;8.30;;
73766;SDS011;62074;43.530;-5.646;2022-07-18T12:32:48;18.10;;;9.57;;
73766;SDS011;62074;43.530;-5.646;2022-07-18T12:37:57;14.98;;;9.02;;
73766;SDS011;62074;43.530;-5.646;2022-07-18T12:43:10;17.27;;;9.40;;
73766;SDS011;62074;43.530;-5.646;2022-07-18T12:45:40;13.60;;;8.85;;
73766;SDS011;62074;43.530;-5.646;2022-07-18T12:48:08;15.00;;;6.88;;
73766;SDS011;62074;43.530;-5.646;2022-07-18T12:50:35;18.65;;;7.93;;
73766;SDS011;62074;43.530;-5.646;2022-07-18T12:53:01;14.90;;;8.90;;
73766;SDS011;62074;43.530;-5.646;2022-07-18T12:55:27;14.20;;;7.67;;
73766;SDS011;62074;43.530;-5.646;2022-07-18T12:57:56;14.95;;;9.45;;
73766;SDS011;62074;43.530;-5.646;2022-07-18T13:00:25;15.77;;;11.07;;
73766;SDS011;62074;43.530;-5.646;2022-07-18T13:02:50;11.60;;;8.55;;
73766;SDS011;62074;43.530;-5.646;2022-07-18T13:05:16;14.30;;;8.03;;
73766;SDS011;62074;43.530;-5.646;2022-07-18T13:07:41;15.77;;;10.57;;
73766;SDS011;62074;43.530;-5.646;2022-07-18T13:10:07;12.63;;;7.13;;
73766;SDS011;62074;43.530;-5.646;2022-07-18T13:12:33;16.15;;;6.88;;
73766;SDS011;62074;43.530;-5.646;2022-07-18T13:14:58;13.87;;;6.67;;
73766;SDS011;62074;43.530;-5.646;2022-07-18T13:17:24;15.47;;;6.23;;
73766;SDS011;62074;43.530;-5.646;2022-07-18T13:19:49;10.13;;;5.80;;
73766;SDS011;62074;43.530;-5.646;2022-07-18T13:22:15;10.77;;;6.03;;
73766;SDS011;62074;43.530;-5.646;2022-07-18T13:24:41;10.35;;;5.50;;
73766;SDS011;62074;43.530;-5.646;2022-07-18T13:27:07;12.10;;;6.90;;
73766;SDS011;62074;43.530;-5.646;2022-07-18T13:29:33;12.52;;;6.45;;
73766;SDS011;62074;43.530;-5.646;2022-07-18T13:31:59;13.77;;;6.25;;
73766;SDS011;62074;43.530;-5.646;2022-07-18T13:34:24;18.50;;;8.13;;
73766;SDS011;62074;43.530;-5.646;2022-07-18T13:36:51;16.17;;;6.85;;
73766;SDS011;62074;43.530;-5.646;2022-07-18T13:39:17;16.20;;;7.63;;
73766;SDS011;62074;43.530;-5.646;2022-07-18T13:41:44;19.10;;;8.77;;
73766;SDS011;62074;43.530;-5.646;2022-07-18T13:44:10;16.75;;;9.95;;
73766;SDS011;62074;43.530;-5.646;2022-07-18T13:46:35;15.75;;;10.05;;
73766;SDS011;62074;43.530;-5.646;2022-07-18T13:49:01;16.33;;;9.00;;
73766;SDS011;62074;43.530;-5.646;2022-07-18T13:51:26;17.27;;;9.77;;
73766;SDS011;62074;43.530;-5.646;2022-07-18T13:53:52;19.75;;;9.30;;
73766;SDS011;62074;43.530;-5.646;2022-07-18T13:56:17;19.37;;;10.13;;
73766;SDS011;62074;43.530;-5.646;2022-07-18T13:58:43;18.38;;;8.60;;
73766;SDS011;62074;43.530;-5.646;2022-07-18T14:01:08;16.07;;;9.57;;
73766;SDS011;62074;43.530;-5.646;2022-07-18T14:03:36;17.88;;;8.90;;
73766;SDS011;62074;43.530;-5.646;2022-07-18T14:06:02;19.00;;;9.57;;
73766;SDS011;62074;43.530;-5.646;2022-07-18T14:08:28;16.90;;;8.57;;
73766;SDS011;62074;43.530;-5.646;2022-07-18T14:10:53;14.90;;;7.97;;
73766;SDS011;62074;43.530;-5.646;2022-07-18T14:13:19;16.13;;;9.18;;
73766;SDS011;62074;43.530;-5.646;2022-07-18T14:15:44;19.30;;;8.70;;
73766;SDS011;62074;43.530;-5.646;2022-07-18T14:18:10;18.50;;;8.00;;
73766;SDS011;62074;43.530;-5.646;2022-07-18T14:20:35;16.47;;;9.07;;
73766;SDS011;62074;43.530;-5.646;2022-07-18T14:23:01;16.80;;;8.30;;
73766;SDS011;62074;43.530;-5.646;2022-07-18T14:25:26;24.77;;;9.27;;
73766;SDS011;62074;43.530;-5.646;2022-07-18T14:27:52;15.80;;;8.13;;
73766;SDS011;62074;43.530;-5.646;2022-07-18T14:30:17;16.98;;;7.40;;
73766;SDS011;62074;43.530;-5.646;2022-07-18T14:32:44;18.67;;;7.38;;
73766;SDS011;62074;43.530;-5.646;2022-07-18T14:35:10;18.03;;;8.37;;
73766;SDS011;62074;43.530;-5.646;2022-07-18T14:37:36;16.42;;;7.82;;
73766;SDS011;62074;43.530;-5.646;2022-07-18T14:40:02;21.25;;;8.90;;
73766;SDS011;62074;43.530;-5.646;2022-07-18T14:42:29;16.77;;;8.10;;
73766;SDS011;62074;43.530;-5.646;2022-07-18T14:44:55;17.15;;;8.02;;
73766;SDS011;62074;43.530;-5.646;2022-07-18T14:47:20;19.57;;;6.87;;
73766;SDS011;62074;43.530;-5.646;2022-07-18T14:49:46;16.40;;;7.65;;
73766;SDS011;62074;43.530;-5.646;2022-07-18T14:52:12;16.50;;;7.00;;
73766;SDS011;62074;43.530;-5.646;2022-07-18T14:54:38;15.65;;;6.47;;
73766;SDS011;62074;43.530;-5.646;2022-07-18T14:57:03;11.63;;;5.37;;
73766;SDS011;62074;43.530;-5.646;2022-07-18T14:59:30;12.63;;;5.70;;
73766;SDS011;62074;43.530;-5.646;2022-07-18T15:01:56;14.48;;;5.32;;
73766;SDS011;62074;43.530;-5.646;2022-07-18T15:04:24;11.43;;;5.38;;
73766;SDS011;62074;43.530;-5.646;2022-07-18T15:06:55;13.77;;;5.32;;
73766;SDS011;62074;43.530;-5.646;2022-07-18T15:09:23;13.87;;;5.00;;
73766;SDS011;62074;43.530;-5.646;2022-07-18T15:11:49;13.32;;;4.97;;
73766;SDS011;62074;43.530;-5.646;2022-07-18T15:14:15;13.77;;;4.87;;
73766;SDS011;62074;43.530;-5.646;2022-07-18T15:16:40;12.07;;;4.78;;